sensor_id;sensor_type;location;lat;lon;timestamp;P1;durP1;ratioP1;P2;durP2;ratioP2
22937;SDS011;11634;42.734;23.298;2023-05-16T00:01:08;15.63;;;12.98;;
22937;SDS011;11634;42.734;23.298;2023-05-16T00:03:34;17.05;;;14.32;;
22937;SDS011;11634;42.734;23.298;2023-05-16T00:06:02;16.63;;;14.10;;
22937;SDS011;11634;42.734;23.298;2023-05-16T00:08:28;17.45;;;13.57;;
22937;SDS011;11634;42.734;23.298;2023-05-16T00:10:53;15.75;;;14.05;;
22937;SDS011;11634;42.734;23.298;2023-05-16T00:13:19;15.07;;;13.48;;
22937;SDS011;11634;42.734;23.298;2023-05-16T00:15:52;15.15;;;13.55;;
22937;SDS011;11634;42.734;23.298;2023-05-16T00:18:19;15.40;;;13.70;;
22937;SDS011;11634;42.734;23.298;2023-05-16T00:20:46;16.38;;;14.68;;
22937;SDS011;11634;42.734;23.298;2023-05-16T00:23:13;14.60;;;13.10;;
22937;SDS011;11634;42.734;23.298;2023-05-16T00:25:39;15.70;;;14.10;;
22937;SDS011;11634;42.734;23.298;2023-05-16T00:28:05;17.88;;;14.63;;
22937;SDS011;11634;42.734;23.298;2023-05-16T00:30:31;18.85;;;14.32;;
22937;SDS011;11634;42.734;23.298;2023-05-16T00:32:56;17.55;;;13.52;;
22937;SDS011;11634;42.734;23.298;2023-05-16T00:35:22;15.75;;;14.13;;
22937;SDS011;11634;42.734;23.298;2023-05-16T00:37:49;14.88;;;13.38;;
22937;SDS011;11634;42.734;23.298;2023-05-16T00:40:15;16.38;;;13.85;;
22937;SDS011;11634;42.734;23.298;2023-05-16T00:42:41;16.70;;;13.77;;
22937;SDS011;11634;42.734;23.298;2023-05-16T00:45:07;16.42;;;14.70;;
22937;SDS011;11634;42.734;23.298;2023-05-16T00:47:34;15.23;;;13.75;;
22937;SDS011;11634;42.734;23.298;2023-05-16T00:50:00;18.50;;;15.82;;
22937;SDS011;11634;42.734;23.298;2023-05-16T00:52:26;18.70;;;15.60;;
22937;SDS011;11634;42.734;23.298;2023-05-16T00:54:52;17.15;;;15.35;;
22937;SDS011;11634;42.734;23.298;2023-05-16T00:57:20;18.40;;;16.50;;
22937;SDS011;11634;42.734;23.298;2023-05-16T00:59:46;17.83;;;15.85;;
22937;SDS011;11634;42.734;23.298;2023-05-16T01:02:12;17.83;;;15.02;;
22937;SDS011;11634;42.734;23.298;2023-05-16T01:04:38;17.48;;;14.65;;
22937;SDS011;11634;42.734;23.298;2023-05-16T01:07:04;15.25;;;13.68;;
22937;SDS011;11634;42.734;23.298;2023-05-16T01:09:32;15.48;;;13.90;;
22937;SDS011;11634;42.734;23.298;2023-05-16T01:20:46;18.85;;;16.83;;
22937;SDS011;11634;42.734;23.298;2023-05-16T01:23:28;19.73;;;16.35;;
22937;SDS011;11634;42.734;23.298;2023-05-16T01:28:46;23.38;;;18.50;;
22937;SDS011;11634;42.734;23.298;2023-05-16T01:31:13;18.98;;;16.73;;
22937;SDS011;11634;42.734;23.298;2023-05-16T01:33:39;18.23;;;16.38;;
22937;SDS011;11634;42.734;23.298;2023-05-16T01:44:30;17.33;;;14.60;;
22937;SDS011;11634;42.734;23.298;2023-05-16T01:46:58;18.63;;;14.30;;
22937;SDS011;11634;42.734;23.298;2023-05-16T01:49:34;17.98;;;15.43;;
22937;SDS011;11634;42.734;23.298;2023-05-16T01:52:15;18.83;;;14.95;;
22937;SDS011;11634;42.734;23.298;2023-05-16T01:54:53;17.05;;;15.25;;
22937;SDS011;11634;42.734;23.298;2023-05-16T01:57:23;16.52;;;14.60;;
22937;SDS011;11634;42.734;23.298;2023-05-16T01:59:51;15.77;;;13.90;;
22937;SDS011;11634;42.734;23.298;2023-05-16T02:02:17;17.77;;;14.65;;
22937;SDS011;11634;42.734;23.298;2023-05-16T02:04:43;15.57;;;13.93;;
22937;SDS011;11634;42.734;23.298;2023-05-16T02:07:09;14.38;;;12.93;;
22937;SDS011;11634;42.734;23.298;2023-05-16T02:09:36;15.07;;;13.45;;
22937;SDS011;11634;42.734;23.298;2023-05-16T02:12:01;17.33;;;13.40;;
22937;SDS011;11634;42.734;23.298;2023-05-16T02:14:28;13.88;;;12.52;;
22937;SDS011;11634;42.734;23.298;2023-05-16T02:16:54;15.63;;;13.55;;
22937;SDS011;11634;42.734;23.298;2023-05-16T02:19:20;14.07;;;12.60;;
22937;SDS011;11634;42.734;23.298;2023-05-16T02:21:45;15.25;;;13.70;;
22937;SDS011;11634;42.734;23.298;2023-05-16T02:24:11;15.00;;;13.23;;
22937;SDS011;11634;42.734;23.298;2023-05-16T02:26:36;15.07;;;13.50;;
22937;SDS011;11634;42.734;23.298;2023-05-16T02:29:02;14.98;;;13.40;;
22937;SDS011;11634;42.734;23.298;2023-05-16T02:31:28;14.68;;;13.25;;
22937;SDS011;11634;42.734;23.298;2023-05-16T02:33:55;16.20;;;13.15;;
22937;SDS011;11634;42.734;23.298;2023-05-16T02:36:22;14.52;;;13.05;;
22937;SDS011;11634;42.734;23.298;2023-05-16T02:38:49;14.15;;;12.65;;
22937;SDS011;11634;42.734;23.298;2023-05-16T02:41:15;13.75;;;12.18;;
22937;SDS011;11634;42.734;23.298;2023-05-16T02:43:41;14.80;;;13.30;;
22937;SDS011;11634;42.734;23.298;2023-05-16T02:48:49;13.90;;;12.55;;
22937;SDS011;11634;42.734;23.298;2023-05-16T02:51:16;15.10;;;13.32;;
22937;SDS011;11634;42.734;23.298;2023-05-16T02:53:42;14.07;;;12.57;;
22937;SDS011;11634;42.734;23.298;2023-05-16T02:56:08;13.45;;;12.05;;
22937;SDS011;11634;42.734;23.298;2023-05-16T02:58:34;13.77;;;12.02;;
22937;SDS011;11634;42.734;23.298;2023-05-16T03:01:00;15.50;;;12.27;;
22937;SDS011;11634;42.734;23.298;2023-05-16T03:03:25;15.55;;;11.90;;
22937;SDS011;11634;42.734;23.298;2023-05-16T03:05:51;14.15;;;11.77;;
22937;SDS011;11634;42.734;23.298;2023-05-16T03:08:17;14.48;;;13.02;;
22937;SDS011;11634;42.734;23.298;2023-05-16T03:10:42;15.13;;;12.15;;
22937;SDS011;11634;42.734;23.298;2023-05-16T03:13:08;13.63;;;11.95;;
22937;SDS011;11634;42.734;23.298;2023-05-16T03:15:34;14.30;;;11.60;;
22937;SDS011;11634;42.734;23.298;2023-05-16T03:17:59;16.77;;;11.93;;
22937;SDS011;11634;42.734;23.298;2023-05-16T03:20:28;13.63;;;12.23;;
22937;SDS011;11634;42.734;23.298;2023-05-16T03:22:55;13.27;;;11.98;;
22937;SDS011;11634;42.734;23.298;2023-05-16T03:25:20;15.98;;;12.55;;
22937;SDS011;11634;42.734;23.298;2023-05-16T03:27:46;14.43;;;11.70;;
22937;SDS011;11634;42.734;23.298;2023-05-16T03:30:18;13.25;;;11.52;;
22937;SDS011;11634;42.734;23.298;2023-05-16T03:32:44;13.32;;;11.80;;
22937;SDS011;11634;42.734;23.298;2023-05-16T03:35:10;15.02;;;12.27;;
22937;SDS011;11634;42.734;23.298;2023-05-16T03:37:37;13.88;;;12.18;;
22937;SDS011;11634;42.734;23.298;2023-05-16T03:40:04;16.27;;;12.40;;
22937;SDS011;11634;42.734;23.298;2023-05-16T03:42:30;13.95;;;11.73;;
22937;SDS011;11634;42.734;23.298;2023-05-16T03:44:56;12.73;;;11.35;;
22937;SDS011;11634;42.734;23.298;2023-05-16T03:47:22;12.55;;;11.07;;
22937;SDS011;11634;42.734;23.298;2023-05-16T03:49:47;13.32;;;11.68;;
22937;SDS011;11634;42.734;23.298;2023-05-16T03:52:13;14.05;;;12.35;;
22937;SDS011;11634;42.734;23.298;2023-05-16T03:54:39;15.52;;;12.75;;
22937;SDS011;11634;42.734;23.298;2023-05-16T03:57:05;13.98;;;12.38;;
22937;SDS011;11634;42.734;23.298;2023-05-16T03:59:30;13.55;;;11.98;;
22937;SDS011;11634;42.734;23.298;2023-05-16T04:01:56;17.67;;;12.90;;
22937;SDS011;11634;42.734;23.298;2023-05-16T04:04:21;15.85;;;13.60;;
22937;SDS011;11634;42.734;23.298;2023-05-16T04:06:47;14.63;;;12.35;;
22937;SDS011;11634;42.734;23.298;2023-05-16T04:09:13;15.07;;;12.98;;
22937;SDS011;11634;42.734;23.298;2023-05-16T04:11:38;12.70;;;11.48;;
22937;SDS011;11634;42.734;23.298;2023-05-16T04:14:04;13.95;;;12.10;;
22937;SDS011;11634;42.734;23.298;2023-05-16T04:16:29;13.98;;;12.52;;
22937;SDS011;11634;42.734;23.298;2023-05-16T04:18:55;14.57;;;12.40;;
22937;SDS011;11634;42.734;23.298;2023-05-16T04:21:24;14.88;;;13.27;;
22937;SDS011;11634;42.734;23.298;2023-05-16T04:23:50;17.20;;;13.60;;
22937;SDS011;11634;42.734;23.298;2023-05-16T04:26:15;15.45;;;13.85;;
22937;SDS011;11634;42.734;23.298;2023-05-16T04:28:49;14.82;;;13.00;;
22937;SDS011;11634;42.734;23.298;2023-05-16T04:31:14;17.17;;;13.57;;
22937;SDS011;11634;42.734;23.298;2023-05-16T04:33:40;17.17;;;13.65;;
22937;SDS011;11634;42.734;23.298;2023-05-16T04:36:06;17.98;;;13.43;;
22937;SDS011;11634;42.734;23.298;2023-05-16T04:38:32;18.85;;;12.73;;
22937;SDS011;11634;42.734;23.298;2023-05-16T04:40:58;15.60;;;13.45;;
22937;SDS011;11634;42.734;23.298;2023-05-16T04:43:24;16.35;;;13.85;;
22937;SDS011;11634;42.734;23.298;2023-05-16T04:45:50;15.00;;;13.50;;
22937;SDS011;11634;42.734;23.298;2023-05-16T04:48:18;16.95;;;12.90;;
22937;SDS011;11634;42.734;23.298;2023-05-16T04:50:43;16.35;;;14.27;;
22937;SDS011;11634;42.734;23.298;2023-05-16T04:53:09;18.13;;;15.38;;
22937;SDS011;11634;42.734;23.298;2023-05-16T04:55:35;17.52;;;15.00;;
22937;SDS011;11634;42.734;23.298;2023-05-16T04:58:01;20.30;;;15.93;;
22937;SDS011;11634;42.734;23.298;2023-05-16T05:00:26;19.10;;;15.90;;
22937;SDS011;11634;42.734;23.298;2023-05-16T05:02:52;19.23;;;15.30;;
22937;SDS011;11634;42.734;23.298;2023-05-16T05:05:17;16.27;;;14.27;;
22937;SDS011;11634;42.734;23.298;2023-05-16T05:07:43;20.38;;;13.80;;
22937;SDS011;11634;42.734;23.298;2023-05-16T05:10:09;18.45;;;14.48;;
22937;SDS011;11634;42.734;23.298;2023-05-16T05:12:35;18.88;;;14.02;;
22937;SDS011;11634;42.734;23.298;2023-05-16T05:15:01;17.48;;;14.73;;
22937;SDS011;11634;42.734;23.298;2023-05-16T05:17:27;15.73;;;13.98;;
22937;SDS011;11634;42.734;23.298;2023-05-16T05:19:53;19.30;;;15.07;;
22937;SDS011;11634;42.734;23.298;2023-05-16T05:22:19;18.50;;;15.63;;
22937;SDS011;11634;42.734;23.298;2023-05-16T05:24:45;17.73;;;15.77;;
22937;SDS011;11634;42.734;23.298;2023-05-16T05:27:10;22.55;;;17.58;;
22937;SDS011;11634;42.734;23.298;2023-05-16T05:29:36;19.98;;;16.63;;
22937;SDS011;11634;42.734;23.298;2023-05-16T05:32:02;16.58;;;14.52;;
22937;SDS011;11634;42.734;23.298;2023-05-16T05:34:27;21.70;;;16.08;;
22937;SDS011;11634;42.734;23.298;2023-05-16T05:36:53;20.10;;;16.88;;
22937;SDS011;11634;42.734;23.298;2023-05-16T05:39:19;18.75;;;16.15;;
22937;SDS011;11634;42.734;23.298;2023-05-16T05:41:44;21.88;;;15.75;;
22937;SDS011;11634;42.734;23.298;2023-05-16T05:44:10;18.65;;;15.27;;
22937;SDS011;11634;42.734;23.298;2023-05-16T05:46:36;15.98;;;12.68;;
22937;SDS011;11634;42.734;23.298;2023-05-16T05:49:01;16.48;;;13.38;;
22937;SDS011;11634;42.734;23.298;2023-05-16T05:51:27;15.82;;;13.60;;
22937;SDS011;11634;42.734;23.298;2023-05-16T05:53:53;14.10;;;12.30;;
22937;SDS011;11634;42.734;23.298;2023-05-16T05:56:18;17.10;;;13.32;;
22937;SDS011;11634;42.734;23.298;2023-05-16T05:58:45;17.80;;;13.50;;
22937;SDS011;11634;42.734;23.298;2023-05-16T06:01:11;15.82;;;13.02;;
22937;SDS011;11634;42.734;23.298;2023-05-16T06:03:36;14.85;;;12.57;;
22937;SDS011;11634;42.734;23.298;2023-05-16T06:06:02;17.08;;;12.98;;
22937;SDS011;11634;42.734;23.298;2023-05-16T06:08:28;15.77;;;12.05;;
22937;SDS011;11634;42.734;23.298;2023-05-16T06:10:54;17.48;;;13.10;;
22937;SDS011;11634;42.734;23.298;2023-05-16T06:13:20;14.93;;;11.98;;
22937;SDS011;11634;42.734;23.298;2023-05-16T06:15:49;13.93;;;11.30;;
22937;SDS011;11634;42.734;23.298;2023-05-16T06:18:16;14.95;;;10.73;;
22937;SDS011;11634;42.734;23.298;2023-05-16T06:20:41;13.30;;;10.13;;
22937;SDS011;11634;42.734;23.298;2023-05-16T06:23:07;11.70;;;10.32;;
22937;SDS011;11634;42.734;23.298;2023-05-16T06:25:32;13.30;;;10.05;;
22937;SDS011;11634;42.734;23.298;2023-05-16T06:27:58;12.32;;;9.93;;
22937;SDS011;11634;42.734;23.298;2023-05-16T06:30:23;13.07;;;10.00;;
22937;SDS011;11634;42.734;23.298;2023-05-16T06:32:52;11.05;;;9.80;;
22937;SDS011;11634;42.734;23.298;2023-05-16T06:35:18;11.55;;;10.02;;
22937;SDS011;11634;42.734;23.298;2023-05-16T06:37:43;15.02;;;9.82;;
22937;SDS011;11634;42.734;23.298;2023-05-16T06:40:09;14.90;;;10.73;;
22937;SDS011;11634;42.734;23.298;2023-05-16T06:42:36;15.48;;;10.35;;
22937;SDS011;11634;42.734;23.298;2023-05-16T06:45:01;13.02;;;10.60;;
22937;SDS011;11634;42.734;23.298;2023-05-16T06:47:30;13.45;;;9.90;;
22937;SDS011;11634;42.734;23.298;2023-05-16T06:49:55;12.63;;;10.40;;
22937;SDS011;11634;42.734;23.298;2023-05-16T06:52:21;13.35;;;10.23;;
22937;SDS011;11634;42.734;23.298;2023-05-16T06:54:46;15.25;;;10.25;;
22937;SDS011;11634;42.734;23.298;2023-05-16T06:57:12;13.90;;;10.02;;
22937;SDS011;11634;42.734;23.298;2023-05-16T06:59:38;13.48;;;10.80;;
22937;SDS011;11634;42.734;23.298;2023-05-16T07:02:04;15.13;;;10.98;;
22937;SDS011;11634;42.734;23.298;2023-05-16T07:04:30;15.38;;;11.23;;
22937;SDS011;11634;42.734;23.298;2023-05-16T07:06:56;16.58;;;10.80;;
22937;SDS011;11634;42.734;23.298;2023-05-16T07:09:21;15.32;;;10.70;;
22937;SDS011;11634;42.734;23.298;2023-05-16T07:11:47;19.05;;;12.07;;
22937;SDS011;11634;42.734;23.298;2023-05-16T07:14:12;15.13;;;11.45;;
22937;SDS011;11634;42.734;23.298;2023-05-16T07:16:38;13.38;;;10.25;;
22937;SDS011;11634;42.734;23.298;2023-05-16T07:19:04;12.40;;;11.10;;
22937;SDS011;11634;42.734;23.298;2023-05-16T07:21:29;16.90;;;12.38;;
22937;SDS011;11634;42.734;23.298;2023-05-16T07:23:55;17.45;;;13.02;;
22937;SDS011;11634;42.734;23.298;2023-05-16T07:26:21;16.52;;;11.82;;
22937;SDS011;11634;42.734;23.298;2023-05-16T07:28:51;17.75;;;11.15;;
22937;SDS011;11634;42.734;23.298;2023-05-16T07:31:17;13.65;;;8.82;;
22937;SDS011;11634;42.734;23.298;2023-05-16T07:33:43;14.65;;;10.32;;
22937;SDS011;11634;42.734;23.298;2023-05-16T07:36:11;11.13;;;9.75;;
22937;SDS011;11634;42.734;23.298;2023-05-16T07:38:37;16.25;;;10.20;;
22937;SDS011;11634;42.734;23.298;2023-05-16T07:41:02;18.10;;;11.55;;
22937;SDS011;11634;42.734;23.298;2023-05-16T07:43:30;18.08;;;11.02;;
22937;SDS011;11634;42.734;23.298;2023-05-16T07:46:00;15.73;;;11.77;;
22937;SDS011;11634;42.734;23.298;2023-05-16T07:48:26;12.35;;;10.93;;
22937;SDS011;11634;42.734;23.298;2023-05-16T07:50:52;12.23;;;10.20;;
22937;SDS011;11634;42.734;23.298;2023-05-16T07:53:18;12.88;;;10.23;;
22937;SDS011;11634;42.734;23.298;2023-05-16T07:55:43;12.45;;;10.43;;
22937;SDS011;11634;42.734;23.298;2023-05-16T07:58:09;11.27;;;9.32;;
22937;SDS011;11634;42.734;23.298;2023-05-16T08:00:35;14.32;;;9.70;;
22937;SDS011;11634;42.734;23.298;2023-05-16T08:03:14;10.93;;;9.18;;
22937;SDS011;11634;42.734;23.298;2023-05-16T08:05:44;13.07;;;8.90;;
22937;SDS011;11634;42.734;23.298;2023-05-16T08:08:09;13.55;;;8.80;;
22937;SDS011;11634;42.734;23.298;2023-05-16T08:11:04;11.88;;;8.48;;
22937;SDS011;11634;42.734;23.298;2023-05-16T08:13:30;10.45;;;8.63;;
22937;SDS011;11634;42.734;23.298;2023-05-16T08:16:05;15.57;;;9.73;;
22937;SDS011;11634;42.734;23.298;2023-05-16T08:18:33;13.32;;;8.88;;
22937;SDS011;11634;42.734;23.298;2023-05-16T08:21:06;14.45;;;8.90;;
22937;SDS011;11634;42.734;23.298;2023-05-16T08:23:37;17.25;;;9.70;;
22937;SDS011;11634;42.734;23.298;2023-05-16T08:26:03;11.00;;;9.05;;
22937;SDS011;11634;42.734;23.298;2023-05-16T08:28:47;12.45;;;8.25;;
22937;SDS011;11634;42.734;23.298;2023-05-16T08:31:38;9.90;;;8.90;;
22937;SDS011;11634;42.734;23.298;2023-05-16T08:34:06;10.80;;;9.45;;
22937;SDS011;11634;42.734;23.298;2023-05-16T08:36:33;18.45;;;9.90;;
22937;SDS011;11634;42.734;23.298;2023-05-16T08:39:00;15.35;;;9.75;;
22937;SDS011;11634;42.734;23.298;2023-05-16T08:41:25;13.02;;;9.05;;
22937;SDS011;11634;42.734;23.298;2023-05-16T08:46:51;14.95;;;9.32;;
22937;SDS011;11634;42.734;23.298;2023-05-16T08:49:23;13.60;;;9.82;;
22937;SDS011;11634;42.734;23.298;2023-05-16T08:51:57;11.07;;;8.80;;
22937;SDS011;11634;42.734;23.298;2023-05-16T08:54:26;12.23;;;8.80;;
22937;SDS011;11634;42.734;23.298;2023-05-16T08:56:52;12.85;;;8.70;;
22937;SDS011;11634;42.734;23.298;2023-05-16T08:59:19;8.18;;;7.22;;
22937;SDS011;11634;42.734;23.298;2023-05-16T09:01:45;11.30;;;8.10;;
22937;SDS011;11634;42.734;23.298;2023-05-16T09:04:18;10.45;;;7.85;;
22937;SDS011;11634;42.734;23.298;2023-05-16T09:06:45;10.35;;;8.68;;
22937;SDS011;11634;42.734;23.298;2023-05-16T09:09:14;13.00;;;8.20;;
22937;SDS011;11634;42.734;23.298;2023-05-16T09:11:42;13.38;;;8.40;;
22937;SDS011;11634;42.734;23.298;2023-05-16T09:14:14;13.75;;;8.38;;
22937;SDS011;11634;42.734;23.298;2023-05-16T09:16:43;12.73;;;8.30;;
22937;SDS011;11634;42.734;23.298;2023-05-16T09:19:12;15.07;;;7.63;;
22937;SDS011;11634;42.734;23.298;2023-05-16T09:21:43;11.02;;;7.82;;
22937;SDS011;11634;42.734;23.298;2023-05-16T09:24:09;10.75;;;8.23;;
22937;SDS011;11634;42.734;23.298;2023-05-16T09:26:35;13.38;;;7.93;;
22937;SDS011;11634;42.734;23.298;2023-05-16T09:29:09;13.00;;;7.65;;
22937;SDS011;11634;42.734;23.298;2023-05-16T09:31:44;14.38;;;7.90;;
22937;SDS011;11634;42.734;23.298;2023-05-16T09:34:12;12.82;;;7.40;;
22937;SDS011;11634;42.734;23.298;2023-05-16T09:36:43;10.75;;;7.07;;
22937;SDS011;11634;42.734;23.298;2023-05-16T09:39:09;11.75;;;7.30;;
22937;SDS011;11634;42.734;23.298;2023-05-16T09:41:36;9.43;;;6.25;;
22937;SDS011;11634;42.734;23.298;2023-05-16T09:44:05;7.35;;;6.30;;
22937;SDS011;11634;42.734;23.298;2023-05-16T09:46:32;10.57;;;7.30;;
22937;SDS011;11634;42.734;23.298;2023-05-16T09:49:00;12.73;;;7.70;;
22937;SDS011;11634;42.734;23.298;2023-05-16T09:51:25;9.55;;;7.72;;
22937;SDS011;11634;42.734;23.298;2023-05-16T09:53:56;10.23;;;7.25;;
22937;SDS011;11634;42.734;23.298;2023-05-16T09:56:22;8.73;;;7.53;;
22937;SDS011;11634;42.734;23.298;2023-05-16T09:58:50;13.10;;;7.80;;
22937;SDS011;11634;42.734;23.298;2023-05-16T10:01:18;10.25;;;7.20;;
22937;SDS011;11634;42.734;23.298;2023-05-16T10:03:44;10.38;;;8.10;;
22937;SDS011;11634;42.734;23.298;2023-05-16T10:06:10;12.52;;;8.00;;
22937;SDS011;11634;42.734;23.298;2023-05-16T10:08:37;15.35;;;7.18;;
22937;SDS011;11634;42.734;23.298;2023-05-16T10:11:06;9.38;;;7.45;;
22937;SDS011;11634;42.734;23.298;2023-05-16T10:13:35;11.18;;;7.70;;
22937;SDS011;11634;42.734;23.298;2023-05-16T10:16:06;11.18;;;7.90;;
22937;SDS011;11634;42.734;23.298;2023-05-16T10:18:34;10.23;;;6.45;;
22937;SDS011;11634;42.734;23.298;2023-05-16T10:21:04;8.30;;;6.82;;
22937;SDS011;11634;42.734;23.298;2023-05-16T10:23:34;15.23;;;7.00;;
22937;SDS011;11634;42.734;23.298;2023-05-16T10:26:04;11.18;;;7.80;;
22937;SDS011;11634;42.734;23.298;2023-05-16T10:28:31;9.10;;;7.20;;
22937;SDS011;11634;42.734;23.298;2023-05-16T10:30:57;8.52;;;7.18;;
22937;SDS011;11634;42.734;23.298;2023-05-16T10:37:03;8.80;;;7.00;;
22937;SDS011;11634;42.734;23.298;2023-05-16T10:40:17;12.30;;;6.93;;
22937;SDS011;11634;42.734;23.298;2023-05-16T10:46:08;10.10;;;6.57;;
22937;SDS011;11634;42.734;23.298;2023-05-16T10:48:35;11.60;;;7.28;;
22937;SDS011;11634;42.734;23.298;2023-05-16T10:54:03;11.77;;;7.20;;
22937;SDS011;11634;42.734;23.298;2023-05-16T10:56:37;10.15;;;6.70;;
22937;SDS011;11634;42.734;23.298;2023-05-16T10:59:03;13.57;;;7.55;;
22937;SDS011;11634;42.734;23.298;2023-05-16T11:01:46;8.23;;;6.95;;
22937;SDS011;11634;42.734;23.298;2023-05-16T11:04:17;14.00;;;7.53;;
22937;SDS011;11634;42.734;23.298;2023-05-16T11:06:44;10.68;;;7.05;;
22937;SDS011;11634;42.734;23.298;2023-05-16T11:11:38;9.23;;;7.38;;
22937;SDS011;11634;42.734;23.298;2023-05-16T11:14:22;11.30;;;7.43;;
22937;SDS011;11634;42.734;23.298;2023-05-16T11:17:01;15.00;;;8.02;;
22937;SDS011;11634;42.734;23.298;2023-05-16T11:19:32;12.45;;;7.60;;
22937;SDS011;11634;42.734;23.298;2023-05-16T11:22:05;9.63;;;7.38;;
22937;SDS011;11634;42.734;23.298;2023-05-16T11:24:47;11.63;;;6.82;;
22937;SDS011;11634;42.734;23.298;2023-05-16T11:29:47;10.70;;;7.35;;
22937;SDS011;11634;42.734;23.298;2023-05-16T11:32:13;9.90;;;7.00;;
22937;SDS011;11634;42.734;23.298;2023-05-16T11:34:44;11.35;;;7.07;;
22937;SDS011;11634;42.734;23.298;2023-05-16T11:37:11;10.18;;;6.68;;
22937;SDS011;11634;42.734;23.298;2023-05-16T11:39:37;10.57;;;7.30;;
22937;SDS011;11634;42.734;23.298;2023-05-16T11:42:03;13.38;;;7.22;;
22937;SDS011;11634;42.734;23.298;2023-05-16T11:44:29;9.35;;;7.38;;
22937;SDS011;11634;42.734;23.298;2023-05-16T11:46:55;12.15;;;7.47;;
22937;SDS011;11634;42.734;23.298;2023-05-16T11:49:21;17.02;;;7.65;;
22937;SDS011;11634;42.734;23.298;2023-05-16T11:51:49;10.98;;;7.10;;
22937;SDS011;11634;42.734;23.298;2023-05-16T11:54:18;12.07;;;7.20;;
22937;SDS011;11634;42.734;23.298;2023-05-16T11:56:43;7.78;;;6.22;;
22937;SDS011;11634;42.734;23.298;2023-05-16T11:59:09;9.18;;;6.82;;
22937;SDS011;11634;42.734;23.298;2023-05-16T12:01:38;12.40;;;7.20;;
22937;SDS011;11634;42.734;23.298;2023-05-16T12:04:08;13.68;;;6.65;;
22937;SDS011;11634;42.734;23.298;2023-05-16T12:06:36;8.90;;;6.85;;
22937;SDS011;11634;42.734;23.298;2023-05-16T12:09:05;13.35;;;6.97;;
22937;SDS011;11634;42.734;23.298;2023-05-16T12:11:36;14.63;;;7.03;;
22937;SDS011;11634;42.734;23.298;2023-05-16T12:14:03;12.43;;;6.18;;
22937;SDS011;11634;42.734;23.298;2023-05-16T12:16:33;10.57;;;6.07;;
22937;SDS011;11634;42.734;23.298;2023-05-16T12:19:01;7.30;;;6.10;;
22937;SDS011;11634;42.734;23.298;2023-05-16T12:21:29;10.52;;;6.13;;
22937;SDS011;11634;42.734;23.298;2023-05-16T12:23:57;9.30;;;6.22;;
22937;SDS011;11634;42.734;23.298;2023-05-16T12:26:27;7.60;;;5.57;;
22937;SDS011;11634;42.734;23.298;2023-05-16T12:28:58;9.23;;;6.03;;
22937;SDS011;11634;42.734;23.298;2023-05-16T12:31:25;11.38;;;6.40;;
22937;SDS011;11634;42.734;23.298;2023-05-16T12:33:54;10.13;;;6.30;;
22937;SDS011;11634;42.734;23.298;2023-05-16T12:36:21;7.15;;;5.35;;
22937;SDS011;11634;42.734;23.298;2023-05-16T12:38:48;11.35;;;5.47;;
22937;SDS011;11634;42.734;23.298;2023-05-16T12:41:23;9.35;;;5.82;;
22937;SDS011;11634;42.734;23.298;2023-05-16T12:43:49;7.60;;;6.63;;
22937;SDS011;11634;42.734;23.298;2023-05-16T12:46:15;9.07;;;6.20;;
22937;SDS011;11634;42.734;23.298;2023-05-16T12:48:41;7.05;;;6.10;;
22937;SDS011;11634;42.734;23.298;2023-05-16T12:51:15;8.88;;;6.35;;
22937;SDS011;11634;42.734;23.298;2023-05-16T12:53:45;10.20;;;6.80;;
22937;SDS011;11634;42.734;23.298;2023-05-16T12:56:13;13.77;;;6.93;;
22937;SDS011;11634;42.734;23.298;2023-05-16T12:58:41;10.18;;;7.38;;
22937;SDS011;11634;42.734;23.298;2023-05-16T13:01:07;10.88;;;7.45;;
22937;SDS011;11634;42.734;23.298;2023-05-16T13:03:33;11.50;;;7.47;;
22937;SDS011;11634;42.734;23.298;2023-05-16T13:06:00;10.45;;;7.85;;
22937;SDS011;11634;42.734;23.298;2023-05-16T13:08:30;9.55;;;6.97;;
22937;SDS011;11634;42.734;23.298;2023-05-16T13:10:55;10.02;;;7.50;;
22937;SDS011;11634;42.734;23.298;2023-05-16T13:13:21;10.13;;;7.20;;
22937;SDS011;11634;42.734;23.298;2023-05-16T13:15:47;8.43;;;6.85;;
22937;SDS011;11634;42.734;23.298;2023-05-16T13:18:13;11.43;;;7.13;;
22937;SDS011;11634;42.734;23.298;2023-05-16T13:20:39;12.60;;;7.82;;
22937;SDS011;11634;42.734;23.298;2023-05-16T13:23:04;10.90;;;7.57;;
22937;SDS011;11634;42.734;23.298;2023-05-16T13:25:30;16.73;;;8.63;;
22937;SDS011;11634;42.734;23.298;2023-05-16T13:27:57;11.52;;;7.50;;
22937;SDS011;11634;42.734;23.298;2023-05-16T13:30:23;13.18;;;7.63;;
22937;SDS011;11634;42.734;23.298;2023-05-16T13:32:49;10.30;;;7.43;;
22937;SDS011;11634;42.734;23.298;2023-05-16T13:35:19;10.40;;;6.85;;
22937;SDS011;11634;42.734;23.298;2023-05-16T13:37:45;12.32;;;7.53;;
22937;SDS011;11634;42.734;23.298;2023-05-16T13:40:14;14.27;;;7.60;;
22937;SDS011;11634;42.734;23.298;2023-05-16T13:42:41;15.57;;;7.30;;
22937;SDS011;11634;42.734;23.298;2023-05-16T13:45:10;9.93;;;7.38;;
22937;SDS011;11634;42.734;23.298;2023-05-16T13:47:38;16.23;;;8.30;;
22937;SDS011;11634;42.734;23.298;2023-05-16T13:50:05;12.05;;;8.40;;
22937;SDS011;11634;42.734;23.298;2023-05-16T13:52:34;14.43;;;7.90;;
22937;SDS011;11634;42.734;23.298;2023-05-16T13:55:01;9.00;;;7.38;;
22937;SDS011;11634;42.734;23.298;2023-05-16T13:57:27;14.73;;;7.95;;
22937;SDS011;11634;42.734;23.298;2023-05-16T13:59:53;13.77;;;7.47;;
22937;SDS011;11634;42.734;23.298;2023-05-16T14:02:19;14.55;;;8.27;;
22937;SDS011;11634;42.734;23.298;2023-05-16T14:04:45;14.15;;;7.95;;
22937;SDS011;11634;42.734;23.298;2023-05-16T14:07:10;15.07;;;7.57;;
22937;SDS011;11634;42.734;23.298;2023-05-16T14:09:36;13.57;;;7.32;;
22937;SDS011;11634;42.734;23.298;2023-05-16T14:12:08;19.48;;;8.38;;
22937;SDS011;11634;42.734;23.298;2023-05-16T14:14:34;16.65;;;9.23;;
22937;SDS011;11634;42.734;23.298;2023-05-16T14:17:02;31.85;;;10.35;;
22937;SDS011;11634;42.734;23.298;2023-05-16T14:19:28;16.08;;;9.52;;
22937;SDS011;11634;42.734;23.298;2023-05-16T14:21:54;21.55;;;10.25;;
22937;SDS011;11634;42.734;23.298;2023-05-16T14:24:20;18.60;;;10.77;;
22937;SDS011;11634;42.734;23.298;2023-05-16T14:26:46;18.10;;;10.15;;
22937;SDS011;11634;42.734;23.298;2023-05-16T14:29:11;17.95;;;11.13;;
22937;SDS011;11634;42.734;23.298;2023-05-16T14:31:40;18.00;;;11.63;;
22937;SDS011;11634;42.734;23.298;2023-05-16T14:34:05;19.90;;;10.15;;
22937;SDS011;11634;42.734;23.298;2023-05-16T14:36:31;15.20;;;10.02;;
22937;SDS011;11634;42.734;23.298;2023-05-16T14:38:57;14.25;;;9.60;;
22937;SDS011;11634;42.734;23.298;2023-05-16T14:41:23;18.38;;;11.25;;
22937;SDS011;11634;42.734;23.298;2023-05-16T14:43:49;17.83;;;9.82;;
22937;SDS011;11634;42.734;23.298;2023-05-16T14:46:15;15.73;;;11.05;;
22937;SDS011;11634;42.734;23.298;2023-05-16T14:48:41;16.02;;;11.50;;
22937;SDS011;11634;42.734;23.298;2023-05-16T14:51:06;12.65;;;10.90;;
22937;SDS011;11634;42.734;23.298;2023-05-16T14:53:32;16.23;;;11.50;;
22937;SDS011;11634;42.734;23.298;2023-05-16T14:55:58;14.35;;;10.27;;
22937;SDS011;11634;42.734;23.298;2023-05-16T14:58:23;15.45;;;11.10;;